sensor_id;sensor_type;location;lat;lon;timestamp;P1;durP1;ratioP1;P2;durP2;ratioP2
56299;SDS011;42209;6.376;-10.782;2023-06-24T00:02:48;1.73;;;0.55;;
56299;SDS011;42209;6.376;-10.782;2023-06-24T00:05:16;2.13;;;0.50;;
56299;SDS011;42209;6.376;-10.782;2023-06-24T00:07:45;1.60;;;0.43;;
56299;SDS011;42209;6.376;-10.782;2023-06-24T00:10:14;1.30;;;0.50;;
56299;SDS011;42209;6.376;-10.782;2023-06-24T00:12:44;3.25;;;0.85;;
56299;SDS011;42209;6.376;-10.782;2023-06-24T00:15:13;1.02;;;0.38;;
56299;SDS011;42209;6.376;-10.782;2023-06-24T00:17:41;1.63;;;0.50;;
56299;SDS011;42209;6.376;-10.782;2023-06-24T00:20:13;1.92;;;0.30;;
56299;SDS011;42209;6.376;-10.782;2023-06-24T00:25:10;2.20;;;0.50;;
56299;SDS011;42209;6.376;-10.782;2023-06-24T00:27:38;1.20;;;0.35;;
56299;SDS011;42209;6.376;-10.782;2023-06-24T00:30:07;1.65;;;0.52;;
56299;SDS011;42209;6.376;-10.782;2023-06-24T00:32:36;1.63;;;0.57;;
56299;SDS011;42209;6.376;-10.782;2023-06-24T00:35:05;2.03;;;0.85;;
56299;SDS011;42209;6.376;-10.782;2023-06-24T00:37:34;1.20;;;0.30;;
56299;SDS011;42209;6.376;-10.782;2023-06-24T00:40:02;1.13;;;0.30;;
56299;SDS011;42209;6.376;-10.782;2023-06-24T00:44:59;1.25;;;0.45;;
56299;SDS011;42209;6.376;-10.782;2023-06-24T00:47:28;0.85;;;0.30;;
56299;SDS011;42209;6.376;-10.782;2023-06-24T00:49:58;1.17;;;0.40;;
56299;SDS011;42209;6.376;-10.782;2023-06-24T00:52:27;2.50;;;0.50;;
56299;SDS011;42209;6.376;-10.782;2023-06-24T00:54:55;1.50;;;0.40;;
56299;SDS011;42209;6.376;-10.782;2023-06-24T00:57:24;2.28;;;0.65;;
56299;SDS011;42209;6.376;-10.782;2023-06-24T00:59:52;2.72;;;0.63;;
56299;SDS011;42209;6.376;-10.782;2023-06-24T01:02:22;1.38;;;0.50;;
56299;SDS011;42209;6.376;-10.782;2023-06-24T01:04:51;1.13;;;0.30;;
56299;SDS011;42209;6.376;-10.782;2023-06-24T01:09:39;2.58;;;0.30;;
56299;SDS011;42209;6.376;-10.782;2023-06-24T01:12:08;1.45;;;0.60;;
56299;SDS011;42209;6.376;-10.782;2023-06-24T01:14:37;1.40;;;0.88;;
56299;SDS011;42209;6.376;-10.782;2023-06-24T01:17:19;1.23;;;0.40;;
56299;SDS011;42209;6.376;-10.782;2023-06-24T01:20:11;2.00;;;0.40;;
56299;SDS011;42209;6.376;-10.782;2023-06-24T01:32:31;1.85;;;0.50;;
56299;SDS011;42209;6.376;-10.782;2023-06-24T01:35:07;1.08;;;0.30;;
56299;SDS011;42209;6.376;-10.782;2023-06-24T01:37:52;1.65;;;0.40;;
56299;SDS011;42209;6.376;-10.782;2023-06-24T01:40:27;1.40;;;0.38;;
56299;SDS011;42209;6.376;-10.782;2023-06-24T01:43:08;3.97;;;0.60;;
56299;SDS011;42209;6.376;-10.782;2023-06-24T01:45:41;1.88;;;0.70;;
56299;SDS011;42209;6.376;-10.782;2023-06-24T01:48:32;0.93;;;0.55;;
56299;SDS011;42209;6.376;-10.782;2023-06-24T01:51:08;1.98;;;0.55;;
56299;SDS011;42209;6.376;-10.782;2023-06-24T01:53:48;1.38;;;0.40;;
56299;SDS011;42209;6.376;-10.782;2023-06-24T01:56:25;3.42;;;0.35;;
56299;SDS011;42209;6.376;-10.782;2023-06-24T01:58:56;1.58;;;0.50;;
56299;SDS011;42209;6.376;-10.782;2023-06-24T02:01:27;1.48;;;0.45;;
56299;SDS011;42209;6.376;-10.782;2023-06-24T02:04:00;2.00;;;0.40;;
56299;SDS011;42209;6.376;-10.782;2023-06-24T02:06:30;1.17;;;0.52;;
56299;SDS011;42209;6.376;-10.782;2023-06-24T02:08:59;2.45;;;0.65;;
56299;SDS011;42209;6.376;-10.782;2023-06-24T02:11:30;1.33;;;0.60;;
56299;SDS011;42209;6.376;-10.782;2023-06-24T02:14:01;1.35;;;0.50;;
56299;SDS011;42209;6.376;-10.782;2023-06-24T02:16:32;1.20;;;0.50;;
56299;SDS011;42209;6.376;-10.782;2023-06-24T02:19:02;1.50;;;0.55;;
56299;SDS011;42209;6.376;-10.782;2023-06-24T02:21:34;2.35;;;0.85;;
56299;SDS011;42209;6.376;-10.782;2023-06-24T02:24:04;2.55;;;0.90;;
56299;SDS011;42209;6.376;-10.782;2023-06-24T02:26:33;2.90;;;0.57;;
56299;SDS011;42209;6.376;-10.782;2023-06-24T02:29:04;1.80;;;0.75;;
56299;SDS011;42209;6.376;-10.782;2023-06-24T02:31:32;2.22;;;0.70;;
56299;SDS011;42209;6.376;-10.782;2023-06-24T02:34:01;1.83;;;0.50;;
56299;SDS011;42209;6.376;-10.782;2023-06-24T02:36:30;2.47;;;1.13;;
56299;SDS011;42209;6.376;-10.782;2023-06-24T02:38:58;1.38;;;0.70;;
56299;SDS011;42209;6.376;-10.782;2023-06-24T02:43:55;2.22;;;0.93;;
56299;SDS011;42209;6.376;-10.782;2023-06-24T02:46:25;2.97;;;0.65;;
56299;SDS011;42209;6.376;-10.782;2023-06-24T02:48:57;2.63;;;0.52;;
56299;SDS011;42209;6.376;-10.782;2023-06-24T02:51:26;2.10;;;0.60;;
56299;SDS011;42209;6.376;-10.782;2023-06-24T02:53:56;1.55;;;0.57;;
56299;SDS011;42209;6.376;-10.782;2023-06-24T02:56:45;0.90;;;0.30;;
56299;SDS011;42209;6.376;-10.782;2023-06-24T02:59:21;2.05;;;0.70;;
56299;SDS011;42209;6.376;-10.782;2023-06-24T03:01:51;1.48;;;0.70;;
56299;SDS011;42209;6.376;-10.782;2023-06-24T03:04:20;1.52;;;0.70;;
56299;SDS011;42209;6.376;-10.782;2023-06-24T03:06:49;2.03;;;0.63;;
56299;SDS011;42209;6.376;-10.782;2023-06-24T03:09:18;2.30;;;0.60;;
56299;SDS011;42209;6.376;-10.782;2023-06-24T03:11:50;1.75;;;0.60;;
56299;SDS011;42209;6.376;-10.782;2023-06-24T03:14:29;1.27;;;0.57;;
56299;SDS011;42209;6.376;-10.782;2023-06-24T03:16:57;2.00;;;0.60;;
56299;SDS011;42209;6.376;-10.782;2023-06-24T03:19:26;1.20;;;0.50;;
56299;SDS011;42209;6.376;-10.782;2023-06-24T03:21:55;1.75;;;0.73;;
56299;SDS011;42209;6.376;-10.782;2023-06-24T03:24:24;1.40;;;0.50;;
56299;SDS011;42209;6.376;-10.782;2023-06-24T03:29:21;2.97;;;0.63;;
56299;SDS011;42209;6.376;-10.782;2023-06-24T03:31:56;1.45;;;0.47;;
56299;SDS011;42209;6.376;-10.782;2023-06-24T03:34:26;2.80;;;0.90;;
56299;SDS011;42209;6.376;-10.782;2023-06-24T03:36:54;1.58;;;0.82;;
56299;SDS011;42209;6.376;-10.782;2023-06-24T03:39:23;1.58;;;0.50;;
56299;SDS011;42209;6.376;-10.782;2023-06-24T03:41:52;1.30;;;0.50;;
56299;SDS011;42209;6.376;-10.782;2023-06-24T03:44:21;1.42;;;0.52;;
56299;SDS011;42209;6.376;-10.782;2023-06-24T03:46:50;1.70;;;0.80;;
56299;SDS011;42209;6.376;-10.782;2023-06-24T03:49:18;2.10;;;1.25;;
56299;SDS011;42209;6.376;-10.782;2023-06-24T03:51:48;2.53;;;0.63;;
56299;SDS011;42209;6.376;-10.782;2023-06-24T03:54:16;6.45;;;0.77;;
56299;SDS011;42209;6.376;-10.782;2023-06-24T03:56:44;1.73;;;0.60;;
56299;SDS011;42209;6.376;-10.782;2023-06-24T03:59:14;1.10;;;0.52;;
56299;SDS011;42209;6.376;-10.782;2023-06-24T04:01:42;1.48;;;0.70;;
56299;SDS011;42209;6.376;-10.782;2023-06-24T04:06:39;1.27;;;0.50;;
56299;SDS011;42209;6.376;-10.782;2023-06-24T04:11:37;1.50;;;0.77;;
56299;SDS011;42209;6.376;-10.782;2023-06-24T04:14:05;1.50;;;0.70;;
56299;SDS011;42209;6.376;-10.782;2023-06-24T04:16:34;3.03;;;0.98;;
56299;SDS011;42209;6.376;-10.782;2023-06-24T04:21:30;1.63;;;0.75;;
56299;SDS011;42209;6.376;-10.782;2023-06-24T04:26:27;3.15;;;1.02;;
56299;SDS011;42209;6.376;-10.782;2023-06-24T04:28:55;2.22;;;0.70;;
56299;SDS011;42209;6.376;-10.782;2023-06-24T04:31:24;1.92;;;0.70;;
56299;SDS011;42209;6.376;-10.782;2023-06-24T04:33:52;1.45;;;0.90;;
56299;SDS011;42209;6.376;-10.782;2023-06-24T04:38:49;2.05;;;0.73;;
56299;SDS011;42209;6.376;-10.782;2023-06-24T04:41:17;3.88;;;0.88;;
56299;SDS011;42209;6.376;-10.782;2023-06-24T04:43:46;1.45;;;0.82;;
56299;SDS011;42209;6.376;-10.782;2023-06-24T04:46:14;2.25;;;1.05;;
56299;SDS011;42209;6.376;-10.782;2023-06-24T04:48:42;2.25;;;0.80;;
56299;SDS011;42209;6.376;-10.782;2023-06-24T04:51:11;1.83;;;0.82;;
56299;SDS011;42209;6.376;-10.782;2023-06-24T04:53:39;3.00;;;1.00;;
56299;SDS011;42209;6.376;-10.782;2023-06-24T04:56:08;2.13;;;1.08;;
56299;SDS011;42209;6.376;-10.782;2023-06-24T04:58:36;2.13;;;0.60;;
56299;SDS011;42209;6.376;-10.782;2023-06-24T05:01:04;2.53;;;0.80;;
56299;SDS011;42209;6.376;-10.782;2023-06-24T05:03:33;1.98;;;0.90;;
56299;SDS011;42209;6.376;-10.782;2023-06-24T05:06:02;1.80;;;0.77;;
56299;SDS011;42209;6.376;-10.782;2023-06-24T05:08:30;2.15;;;0.90;;
56299;SDS011;42209;6.376;-10.782;2023-06-24T05:10:58;2.50;;;1.15;;
56299;SDS011;42209;6.376;-10.782;2023-06-24T05:13:27;2.00;;;0.77;;
56299;SDS011;42209;6.376;-10.782;2023-06-24T05:15:56;1.92;;;1.17;;
56299;SDS011;42209;6.376;-10.782;2023-06-24T05:18:24;2.03;;;0.98;;
56299;SDS011;42209;6.376;-10.782;2023-06-24T05:23:21;1.50;;;0.80;;
56299;SDS011;42209;6.376;-10.782;2023-06-24T05:25:49;1.95;;;0.75;;
56299;SDS011;42209;6.376;-10.782;2023-06-24T05:28:17;2.10;;;0.88;;
56299;SDS011;42209;6.376;-10.782;2023-06-24T05:30:46;1.45;;;0.80;;
56299;SDS011;42209;6.376;-10.782;2023-06-24T05:33:15;2.42;;;1.27;;
56299;SDS011;42209;6.376;-10.782;2023-06-24T05:35:43;1.73;;;0.90;;
56299;SDS011;42209;6.376;-10.782;2023-06-24T05:38:12;2.72;;;1.13;;
56299;SDS011;42209;6.376;-10.782;2023-06-24T05:40:40;3.58;;;1.42;;
56299;SDS011;42209;6.376;-10.782;2023-06-24T05:43:10;2.63;;;1.30;;
56299;SDS011;42209;6.376;-10.782;2023-06-24T05:45:38;2.75;;;1.30;;
56299;SDS011;42209;6.376;-10.782;2023-06-24T05:48:07;3.47;;;1.40;;
56299;SDS011;42209;6.376;-10.782;2023-06-24T05:50:35;2.42;;;1.17;;
56299;SDS011;42209;6.376;-10.782;2023-06-24T05:53:03;2.30;;;1.48;;
56299;SDS011;42209;6.376;-10.782;2023-06-24T05:55:32;3.20;;;1.48;;
56299;SDS011;42209;6.376;-10.782;2023-06-24T05:58:01;1.73;;;1.13;;
56299;SDS011;42209;6.376;-10.782;2023-06-24T06:00:30;2.65;;;1.42;;
56299;SDS011;42209;6.376;-10.782;2023-06-24T06:02:58;3.03;;;0.90;;
56299;SDS011;42209;6.376;-10.782;2023-06-24T06:05:27;2.00;;;1.30;;
56299;SDS011;42209;6.376;-10.782;2023-06-24T06:07:55;3.05;;;1.38;;
56299;SDS011;42209;6.376;-10.782;2023-06-24T06:10:23;3.00;;;1.20;;
56299;SDS011;42209;6.376;-10.782;2023-06-24T06:12:52;3.25;;;1.48;;
56299;SDS011;42209;6.376;-10.782;2023-06-24T06:15:20;2.45;;;1.00;;
56299;SDS011;42209;6.376;-10.782;2023-06-24T06:17:49;2.78;;;1.92;;
56299;SDS011;42209;6.376;-10.782;2023-06-24T06:20:18;3.38;;;1.60;;
56299;SDS011;42209;6.376;-10.782;2023-06-24T06:22:47;3.33;;;1.67;;
56299;SDS011;42209;6.376;-10.782;2023-06-24T06:25:15;4.75;;;1.73;;
56299;SDS011;42209;6.376;-10.782;2023-06-24T06:27:44;2.30;;;1.17;;
56299;SDS011;42209;6.376;-10.782;2023-06-24T06:30:13;3.90;;;1.33;;
56299;SDS011;42209;6.376;-10.782;2023-06-24T06:32:41;2.75;;;1.25;;
56299;SDS011;42209;6.376;-10.782;2023-06-24T06:35:10;3.33;;;1.23;;
56299;SDS011;42209;6.376;-10.782;2023-06-24T06:37:38;4.38;;;1.50;;
56299;SDS011;42209;6.376;-10.782;2023-06-24T06:40:07;6.22;;;1.48;;
56299;SDS011;42209;6.376;-10.782;2023-06-24T06:42:36;2.47;;;1.52;;
56299;SDS011;42209;6.376;-10.782;2023-06-24T06:45:04;3.20;;;1.50;;
56299;SDS011;42209;6.376;-10.782;2023-06-24T06:47:33;2.92;;;1.35;;
56299;SDS011;42209;6.376;-10.782;2023-06-24T06:50:02;2.85;;;1.20;;
56299;SDS011;42209;6.376;-10.782;2023-06-24T06:52:30;2.20;;;1.38;;
56299;SDS011;42209;6.376;-10.782;2023-06-24T06:54:59;2.35;;;1.45;;
56299;SDS011;42209;6.376;-10.782;2023-06-24T06:57:27;3.22;;;1.65;;
56299;SDS011;42209;6.376;-10.782;2023-06-24T06:59:56;2.13;;;1.33;;
56299;SDS011;42209;6.376;-10.782;2023-06-24T07:02:24;3.47;;;1.58;;
56299;SDS011;42209;6.376;-10.782;2023-06-24T07:04:53;1.40;;;1.00;;
56299;SDS011;42209;6.376;-10.782;2023-06-24T07:07:21;2.17;;;1.52;;
56299;SDS011;42209;6.376;-10.782;2023-06-24T07:09:50;3.13;;;1.20;;
56299;SDS011;42209;6.376;-10.782;2023-06-24T07:12:19;2.55;;;1.50;;
56299;SDS011;42209;6.376;-10.782;2023-06-24T07:14:47;2.00;;;1.13;;
56299;SDS011;42209;6.376;-10.782;2023-06-24T07:17:16;4.10;;;1.25;;
56299;SDS011;42209;6.376;-10.782;2023-06-24T07:19:44;5.63;;;1.58;;
56299;SDS011;42209;6.376;-10.782;2023-06-24T07:22:13;2.72;;;1.15;;
56299;SDS011;42209;6.376;-10.782;2023-06-24T07:24:42;2.78;;;1.20;;
56299;SDS011;42209;6.376;-10.782;2023-06-24T07:27:11;3.25;;;1.42;;
56299;SDS011;42209;6.376;-10.782;2023-06-24T07:29:39;1.98;;;1.30;;
56299;SDS011;42209;6.376;-10.782;2023-06-24T07:32:09;2.17;;;1.50;;
56299;SDS011;42209;6.376;-10.782;2023-06-24T07:34:37;2.92;;;1.27;;
56299;SDS011;42209;6.376;-10.782;2023-06-24T07:39:49;4.35;;;2.00;;
56299;SDS011;42209;6.376;-10.782;2023-06-24T07:44:46;2.85;;;1.60;;
56299;SDS011;42209;6.376;-10.782;2023-06-24T07:47:16;2.78;;;1.25;;
56299;SDS011;42209;6.376;-10.782;2023-06-24T07:49:45;2.58;;;1.85;;
56299;SDS011;42209;6.376;-10.782;2023-06-24T07:52:14;2.58;;;1.60;;
56299;SDS011;42209;6.376;-10.782;2023-06-24T07:54:42;2.10;;;1.15;;
56299;SDS011;42209;6.376;-10.782;2023-06-24T07:59:39;2.25;;;1.23;;
56299;SDS011;42209;6.376;-10.782;2023-06-24T08:02:08;2.42;;;1.75;;
56299;SDS011;42209;6.376;-10.782;2023-06-24T08:04:36;3.55;;;1.67;;
56299;SDS011;42209;6.376;-10.782;2023-06-24T08:07:05;2.45;;;1.63;;
56299;SDS011;42209;6.376;-10.782;2023-06-24T08:12:02;2.95;;;1.75;;
56299;SDS011;42209;6.376;-10.782;2023-06-24T08:14:31;4.07;;;2.65;;
56299;SDS011;42209;6.376;-10.782;2023-06-24T08:19:29;2.45;;;1.67;;
56299;SDS011;42209;6.376;-10.782;2023-06-24T08:21:57;3.92;;;2.17;;
56299;SDS011;42209;6.376;-10.782;2023-06-24T08:24:36;4.65;;;1.88;;
56299;SDS011;42209;6.376;-10.782;2023-06-24T08:27:06;3.03;;;1.65;;
56299;SDS011;42209;6.376;-10.782;2023-06-24T08:29:35;3.50;;;1.85;;
56299;SDS011;42209;6.376;-10.782;2023-06-24T08:32:04;2.47;;;1.60;;
56299;SDS011;42209;6.376;-10.782;2023-06-24T08:37:01;3.50;;;1.98;;
56299;SDS011;42209;6.376;-10.782;2023-06-24T08:39:30;2.85;;;2.05;;
56299;SDS011;42209;6.376;-10.782;2023-06-24T08:41:59;4.18;;;2.30;;
56299;SDS011;42209;6.376;-10.782;2023-06-24T08:46:57;3.00;;;1.98;;
56299;SDS011;42209;6.376;-10.782;2023-06-24T08:49:27;2.60;;;1.80;;
56299;SDS011;42209;6.376;-10.782;2023-06-24T08:52:08;4.40;;;2.35;;
56299;SDS011;42209;6.376;-10.782;2023-06-24T08:54:40;3.05;;;2.03;;
56299;SDS011;42209;6.376;-10.782;2023-06-24T08:57:12;4.05;;;2.00;;
56299;SDS011;42209;6.376;-10.782;2023-06-24T09:02:09;4.22;;;2.67;;
56299;SDS011;42209;6.376;-10.782;2023-06-24T09:04:38;3.13;;;2.08;;
56299;SDS011;42209;6.376;-10.782;2023-06-24T09:07:07;3.72;;;2.22;;
56299;SDS011;42209;6.376;-10.782;2023-06-24T09:12:20;4.13;;;2.10;;
56299;SDS011;42209;6.376;-10.782;2023-06-24T09:14:49;4.40;;;3.08;;
56299;SDS011;42209;6.376;-10.782;2023-06-24T09:17:18;3.17;;;2.30;;
56299;SDS011;42209;6.376;-10.782;2023-06-24T09:19:48;5.82;;;3.17;;
56299;SDS011;42209;6.376;-10.782;2023-06-24T09:22:17;4.43;;;3.03;;
56299;SDS011;42209;6.376;-10.782;2023-06-24T09:24:46;5.10;;;3.00;;
56299;SDS011;42209;6.376;-10.782;2023-06-24T09:27:16;3.45;;;2.63;;
56299;SDS011;42209;6.376;-10.782;2023-06-24T09:29:46;3.78;;;2.00;;
56299;SDS011;42209;6.376;-10.782;2023-06-24T09:32:14;2.95;;;2.05;;
56299;SDS011;42209;6.376;-10.782;2023-06-24T09:34:47;3.50;;;2.67;;
56299;SDS011;42209;6.376;-10.782;2023-06-24T09:39:50;4.30;;;2.97;;
56299;SDS011;42209;6.376;-10.782;2023-06-24T09:42:20;4.00;;;2.30;;
56299;SDS011;42209;6.376;-10.782;2023-06-24T09:44:55;5.28;;;2.35;;
56299;SDS011;42209;6.376;-10.782;2023-06-24T09:47:24;3.33;;;2.28;;
56299;SDS011;42209;6.376;-10.782;2023-06-24T09:52:21;3.53;;;2.30;;
56299;SDS011;42209;6.376;-10.782;2023-06-24T09:54:51;4.88;;;2.63;;
56299;SDS011;42209;6.376;-10.782;2023-06-24T09:57:26;3.33;;;2.10;;
56299;SDS011;42209;6.376;-10.782;2023-06-24T09:59:57;2.78;;;1.45;;
56299;SDS011;42209;6.376;-10.782;2023-06-24T10:02:31;3.47;;;2.55;;
56299;SDS011;42209;6.376;-10.782;2023-06-24T10:05:01;3.45;;;2.30;;
56299;SDS011;42209;6.376;-10.782;2023-06-24T10:07:30;3.15;;;2.25;;
56299;SDS011;42209;6.376;-10.782;2023-06-24T10:10:02;3.13;;;1.95;;
56299;SDS011;42209;6.376;-10.782;2023-06-24T10:12:35;2.65;;;1.80;;
56299;SDS011;42209;6.376;-10.782;2023-06-24T10:15:04;2.60;;;2.05;;
56299;SDS011;42209;6.376;-10.782;2023-06-24T10:17:34;2.45;;;1.67;;
56299;SDS011;42209;6.376;-10.782;2023-06-24T10:20:04;3.65;;;2.33;;
56299;SDS011;42209;6.376;-10.782;2023-06-24T10:22:37;2.58;;;2.10;;
56299;SDS011;42209;6.376;-10.782;2023-06-24T10:25:14;2.45;;;1.55;;
56299;SDS011;42209;6.376;-10.782;2023-06-24T10:27:42;2.25;;;1.50;;
56299;SDS011;42209;6.376;-10.782;2023-06-24T10:30:18;2.08;;;1.15;;
56299;SDS011;42209;6.376;-10.782;2023-06-24T10:32:47;2.72;;;1.38;;
56299;SDS011;42209;6.376;-10.782;2023-06-24T10:35:23;2.95;;;2.35;;
56299;SDS011;42209;6.376;-10.782;2023-06-24T10:38:00;3.45;;;1.70;;
56299;SDS011;42209;6.376;-10.782;2023-06-24T10:45:52;2.58;;;1.83;;
56299;SDS011;42209;6.376;-10.782;2023-06-24T10:48:22;1.95;;;1.58;;
56299;SDS011;42209;6.376;-10.782;2023-06-24T10:50:51;2.38;;;1.60;;
56299;SDS011;42209;6.376;-10.782;2023-06-24T10:53:21;2.40;;;1.20;;
56299;SDS011;42209;6.376;-10.782;2023-06-24T10:55:49;2.78;;;1.40;;
56299;SDS011;42209;6.376;-10.782;2023-06-24T10:58:25;2.80;;;1.25;;
56299;SDS011;42209;6.376;-10.782;2023-06-24T11:01:05;3.03;;;1.33;;
56299;SDS011;42209;6.376;-10.782;2023-06-24T11:03:39;2.63;;;1.50;;
56299;SDS011;42209;6.376;-10.782;2023-06-24T11:06:08;2.42;;;1.35;;
56299;SDS011;42209;6.376;-10.782;2023-06-24T11:08:45;2.10;;;1.20;;
56299;SDS011;42209;6.376;-10.782;2023-06-24T11:11:18;1.60;;;1.17;;
56299;SDS011;42209;6.376;-10.782;2023-06-24T11:13:51;2.05;;;1.35;;
56299;SDS011;42209;6.376;-10.782;2023-06-24T11:21:17;1.63;;;0.70;;
56299;SDS011;42209;6.376;-10.782;2023-06-24T11:23:45;1.85;;;1.20;;
56299;SDS011;42209;6.376;-10.782;2023-06-24T11:26:14;3.03;;;1.02;;
56299;SDS011;42209;6.376;-10.782;2023-06-24T11:28:43;2.25;;;1.10;;
56299;SDS011;42209;6.376;-10.782;2023-06-24T11:31:11;1.83;;;1.10;;
56299;SDS011;42209;6.376;-10.782;2023-06-24T11:36:09;1.83;;;0.90;;
56299;SDS011;42209;6.376;-10.782;2023-06-24T11:38:39;1.85;;;1.30;;
56299;SDS011;42209;6.376;-10.782;2023-06-24T11:43:36;2.55;;;1.10;;
56299;SDS011;42209;6.376;-10.782;2023-06-24T11:48:40;1.38;;;1.00;;
56299;SDS011;42209;6.376;-10.782;2023-06-24T11:51:12;1.92;;;0.95;;
56299;SDS011;42209;6.376;-10.782;2023-06-24T11:53:45;1.15;;;0.52;;
56299;SDS011;42209;6.376;-10.782;2023-06-24T11:56:14;1.88;;;0.80;;
56299;SDS011;42209;6.376;-10.782;2023-06-24T11:58:52;2.78;;;0.75;;
56299;SDS011;42209;6.376;-10.782;2023-06-24T12:01:20;3.65;;;1.33;;
56299;SDS011;42209;6.376;-10.782;2023-06-24T12:03:49;1.38;;;0.80;;
56299;SDS011;42209;6.376;-10.782;2023-06-24T12:06:18;2.13;;;0.80;;
56299;SDS011;42209;6.376;-10.782;2023-06-24T12:08:46;2.00;;;0.73;;
56299;SDS011;42209;6.376;-10.782;2023-06-24T12:11:18;1.35;;;0.80;;
56299;SDS011;42209;6.376;-10.782;2023-06-24T12:13:47;1.52;;;0.95;;
56299;SDS011;42209;6.376;-10.782;2023-06-24T12:16:16;1.08;;;0.60;;
56299;SDS011;42209;6.376;-10.782;2023-06-24T12:18:44;1.10;;;0.60;;
56299;SDS011;42209;6.376;-10.782;2023-06-24T12:21:13;1.45;;;0.90;;
56299;SDS011;42209;6.376;-10.782;2023-06-24T12:23:41;1.77;;;0.75;;
56299;SDS011;42209;6.376;-10.782;2023-06-24T12:28:39;2.38;;;0.90;;
56299;SDS011;42209;6.376;-10.782;2023-06-24T12:31:08;1.38;;;0.93;;
56299;SDS011;42209;6.376;-10.782;2023-06-24T12:33:36;2.25;;;0.50;;
56299;SDS011;42209;6.376;-10.782;2023-06-24T12:36:05;1.13;;;0.70;;
56299;SDS011;42209;6.376;-10.782;2023-06-24T12:41:02;1.95;;;0.50;;
56299;SDS011;42209;6.376;-10.782;2023-06-24T12:43:32;1.38;;;0.70;;
56299;SDS011;42209;6.376;-10.782;2023-06-24T12:46:01;1.08;;;0.50;;
56299;SDS011;42209;6.376;-10.782;2023-06-24T12:48:33;0.90;;;0.50;;
56299;SDS011;42209;6.376;-10.782;2023-06-24T12:51:01;1.13;;;0.80;;
56299;SDS011;42209;6.376;-10.782;2023-06-24T12:53:30;1.30;;;0.70;;
56299;SDS011;42209;6.376;-10.782;2023-06-24T12:55:59;0.90;;;0.43;;
56299;SDS011;42209;6.376;-10.782;2023-06-24T12:58:27;1.20;;;0.43;;
56299;SDS011;42209;6.376;-10.782;2023-06-24T13:00:56;1.30;;;0.43;;
56299;SDS011;42209;6.376;-10.782;2023-06-24T13:03:33;2.42;;;0.70;;
56299;SDS011;42209;6.376;-10.782;2023-06-24T13:06:02;2.42;;;1.15;;
56299;SDS011;42209;6.376;-10.782;2023-06-24T13:08:31;2.08;;;0.73;;
56299;SDS011;42209;6.376;-10.782;2023-06-24T13:15:56;1.90;;;0.88;;
56299;SDS011;42209;6.376;-10.782;2023-06-24T13:20:53;1.95;;;1.10;;
56299;SDS011;42209;6.376;-10.782;2023-06-24T13:23:41;2.65;;;1.33;;
56299;SDS011;42209;6.376;-10.782;2023-06-24T13:26:10;3.92;;;2.72;;
56299;SDS011;42209;6.376;-10.782;2023-06-24T13:31:07;3.15;;;1.48;;
56299;SDS011;42209;6.376;-10.782;2023-06-24T13:33:35;2.78;;;1.35;;
56299;SDS011;42209;6.376;-10.782;2023-06-24T13:38:34;3.50;;;1.60;;
56299;SDS011;42209;6.376;-10.782;2023-06-24T13:43:31;2.00;;;1.42;;
56299;SDS011;42209;6.376;-10.782;2023-06-24T13:45:59;3.67;;;1.73;;
56299;SDS011;42209;6.376;-10.782;2023-06-24T13:48:28;2.05;;;1.40;;
56299;SDS011;42209;6.376;-10.782;2023-06-24T13:50:56;3.28;;;1.00;;
56299;SDS011;42209;6.376;-10.782;2023-06-24T13:53:25;1.92;;;1.02;;
56299;SDS011;42209;6.376;-10.782;2023-06-24T13:55:53;3.17;;;1.70;;
56299;SDS011;42209;6.376;-10.782;2023-06-24T13:58:22;3.55;;;1.38;;
56299;SDS011;42209;6.376;-10.782;2023-06-24T14:00:50;2.05;;;1.20;;
56299;SDS011;42209;6.376;-10.782;2023-06-24T14:03:18;3.47;;;1.42;;
56299;SDS011;42209;6.376;-10.782;2023-06-24T14:05:47;2.00;;;1.15;;
56299;SDS011;42209;6.376;-10.782;2023-06-24T14:08:15;2.38;;;1.60;;
56299;SDS011;42209;6.376;-10.782;2023-06-24T14:10:44;3.20;;;1.63;;
56299;SDS011;42209;6.376;-10.782;2023-06-24T14:13:12;2.58;;;1.42;;
56299;SDS011;42209;6.376;-10.782;2023-06-24T14:15:41;2.33;;;1.38;;
56299;SDS011;42209;6.376;-10.782;2023-06-24T14:18:09;2.00;;;1.10;;
56299;SDS011;42209;6.376;-10.782;2023-06-24T14:23:06;3.92;;;1.83;;
56299;SDS011;42209;6.376;-10.782;2023-06-24T14:25:35;2.05;;;0.80;;
56299;SDS011;42209;6.376;-10.782;2023-06-24T14:30:33;2.10;;;1.17;;
56299;SDS011;42209;6.376;-10.782;2023-06-24T14:33:02;2.03;;;1.10;;
56299;SDS011;42209;6.376;-10.782;2023-06-24T14:37:59;2.42;;;1.33;;
56299;SDS011;42209;6.376;-10.782;2023-06-24T14:40:27;2.88;;;1.40;;
56299;SDS011;42209;6.376;-10.782;2023-06-24T19:14:45;0.95;;;0.50;;
56299;SDS011;42209;6.376;-10.782;2023-06-24T19:17:14;1.27;;;0.50;;
56299;SDS011;42209;6.376;-10.782;2023-06-24T19:19:45;1.52;;;0.77;;
56299;SDS011;42209;6.376;-10.782;2023-06-24T19:22:13;1.90;;;0.50;;
56299;SDS011;42209;6.376;-10.782;2023-06-24T19:27:11;1.15;;;0.70;;
56299;SDS011;42209;6.376;-10.782;2023-06-24T19:32:10;1.35;;;0.65;;
56299;SDS011;42209;6.376;-10.782;2023-06-24T19:34:40;1.10;;;0.50;;
56299;SDS011;42209;6.376;-10.782;2023-06-24T19:37:08;0.80;;;0.50;;
56299;SDS011;42209;6.376;-10.782;2023-06-24T19:39:38;1.08;;;0.60;;
56299;SDS011;42209;6.376;-10.782;2023-06-24T19:42:06;1.67;;;0.80;;
56299;SDS011;42209;6.376;-10.782;2023-06-24T19:44:35;1.60;;;0.47;;
56299;SDS011;42209;6.376;-10.782;2023-06-24T19:47:05;0.75;;;0.50;;
56299;SDS011;42209;6.376;-10.782;2023-06-24T19:49:37;1.20;;;0.60;;
56299;SDS011;42209;6.376;-10.782;2023-06-24T19:52:16;1.20;;;0.75;;
56299;SDS011;42209;6.376;-10.782;2023-06-24T19:54:45;1.20;;;0.57;;
56299;SDS011;42209;6.376;-10.782;2023-06-24T19:57:14;0.60;;;0.30;;
56299;SDS011;42209;6.376;-10.782;2023-06-24T19:59:45;0.85;;;0.65;;
56299;SDS011;42209;6.376;-10.782;2023-06-24T20:02:14;1.15;;;0.47;;
56299;SDS011;42209;6.376;-10.782;2023-06-24T20:04:45;1.17;;;0.65;;
56299;SDS011;42209;6.376;-10.782;2023-06-24T20:07:14;1.25;;;0.70;;
56299;SDS011;42209;6.376;-10.782;2023-06-24T20:09:44;1.00;;;0.43;;
56299;SDS011;42209;6.376;-10.782;2023-06-24T20:12:14;1.20;;;0.40;;
56299;SDS011;42209;6.376;-10.782;2023-06-24T20:14:43;0.95;;;0.50;;
56299;SDS011;42209;6.376;-10.782;2023-06-24T20:19:42;1.10;;;0.50;;
56299;SDS011;42209;6.376;-10.782;2023-06-24T20:22:14;1.13;;;0.60;;
56299;SDS011;42209;6.376;-10.782;2023-06-24T20:24:42;1.42;;;0.88;;
56299;SDS011;42209;6.376;-10.782;2023-06-24T20:29:39;1.77;;;0.88;;
56299;SDS011;42209;6.376;-10.782;2023-06-24T20:32:07;1.00;;;0.60;;
56299;SDS011;42209;6.376;-10.782;2023-06-24T20:37:04;1.48;;;0.70;;
56299;SDS011;42209;6.376;-10.782;2023-06-24T20:39:33;1.50;;;0.73;;
56299;SDS011;42209;6.376;-10.782;2023-06-24T20:42:01;1.23;;;0.80;;
56299;SDS011;42209;6.376;-10.782;2023-06-24T20:44:30;1.75;;;0.77;;
56299;SDS011;42209;6.376;-10.782;2023-06-24T20:49:27;2.03;;;0.82;;
56299;SDS011;42209;6.376;-10.782;2023-06-24T20:51:56;1.55;;;0.95;;
56299;SDS011;42209;6.376;-10.782;2023-06-24T20:54:24;1.75;;;0.77;;
56299;SDS011;42209;6.376;-10.782;2023-06-24T20:56:53;2.80;;;1.10;;
56299;SDS011;42209;6.376;-10.782;2023-06-24T20:59:21;1.42;;;0.82;;
56299;SDS011;42209;6.376;-10.782;2023-06-24T21:01:50;1.10;;;0.80;;
56299;SDS011;42209;6.376;-10.782;2023-06-24T21:04:18;1.48;;;0.98;;
56299;SDS011;42209;6.376;-10.782;2023-06-24T21:06:47;2.25;;;1.00;;
56299;SDS011;42209;6.376;-10.782;2023-06-24T21:09:16;1.42;;;0.70;;
56299;SDS011;42209;6.376;-10.782;2023-06-24T21:11:45;1.33;;;1.02;;
56299;SDS011;42209;6.376;-10.782;2023-06-24T21:16:42;2.15;;;1.35;;
56299;SDS011;42209;6.376;-10.782;2023-06-24T21:19:10;2.13;;;1.10;;
56299;SDS011;42209;6.376;-10.782;2023-06-24T21:21:39;3.30;;;1.60;;
56299;SDS011;42209;6.376;-10.782;2023-06-24T21:24:07;2.95;;;1.40;;
56299;SDS011;42209;6.376;-10.782;2023-06-24T21:26:36;1.98;;;1.58;;
56299;SDS011;42209;6.376;-10.782;2023-06-24T21:29:04;4.03;;;1.15;;